Ms Diego + 3 Barge — D00000 — position and weather

sailwx.info

Track history (hours):
 
Tides and Currents Weather Stations Pressure Air Temp Water Temp Dewpoint Dewpoint Depression Visibility Wind Speed Wind Dir Waves Ship Positions

Ms Diego + 3 Barge

Last reported at 2018-Jun-20 20:01 UTC. Time now 2018-Jun-21 01:02 UTC.
Position N 45°04' E 020°21'.

; draft 2.1 m.

Type: Cargo ship. MMSI: 207072266.

Date/timePositionNaut miles runAvg speedWind from/ knotsBaromVisibWave heightAir tempDewpointWater temp
2018-Jun-20 20:01N 45°04' E 020°21'0 2.9
2018-Jun-20 19:59N 45°04' E 020°21'1 3.1
2018-Jun-20 19:31N 45°02' E 020°22'2 3.3
2018-Jun-20 19:01N 45°01' E 020°22'1 2.9
2018-Jun-20 18:31N 44°60' E 020°20'2 3.3
2018-Jun-20 18:00N 44°59' E 020°18'2 3.6
2018-Jun-20 17:31N 44°58' E 020°18'2 3.6
2018-Jun-20 17:01N 44°56' E 020°19'2 3.4
2018-Jun-20 16:31N 44°55' E 020°20'2 3.6
2018-Jun-20 16:01N 44°53' E 020°21'2 3.3
2018-Jun-20 15:31N 44°52' E 020°23'2 3.4
2018-Jun-20 15:01N 44°51' E 020°25'2 3.7
2018-Jun-20 14:31N 44°50' E 020°27'2 3.7
2018-Jun-20 14:00N 44°50' E 020°30'2 4.0
2018-Jun-20 13:30N 44°50' E 020°33'2 3.8
2018-Jun-20 13:01N 44°51' E 020°35'2 3.8
2018-Jun-20 12:31N 44°51' E 020°38'2 3.6
2018-Jun-20 12:01N 44°49' E 020°39'2 3.8
2018-Jun-20 11:31N 44°48' E 020°38'3 3.7
2018-Jun-20 10:42N 44°45' E 020°39'1 3.8
2018-Jun-20 10:31N 44°44' E 020°40'15 1.7
2018-Jun-20 01:36N 44°43' E 021°01'0 0.0
2018-Jun-20 01:30N 44°43' E 021°01'0 0.0
2018-Jun-20 00:25N 44°43' E 021°01'0 0.0
2018-Jun-19 23:37N 44°43' E 021°01'0 0.0
2018-Jun-19 23:30N 44°43' E 021°01'0 0.0
2018-Jun-19 23:00N 44°43' E 021°01'0 0.0
2018-Jun-19 22:27N 44°43' E 021°01'0 0.0
2018-Jun-19 21:43N 44°43' E 021°01'0 0.0
2018-Jun-19 21:31N 44°43' E 021°01'0 0.1
2018-Jun-19 21:00N 44°43' E 021°01'2 3.7
2018-Jun-19 20:30N 44°43' E 021°04'41 2.5
2018-Jun-19 04:08N 44°36' E 022°01'1 4.8
2018-Jun-19 04:01N 44°35' E 022°02'2 3.8
2018-Jun-19 03:31N 44°33' E 022°02'0 0.0
2018-Jun-18 19:39N 44°33' E 022°02'0 0.0
2018-Jun-18 19:30N 44°33' E 022°02'0 0.0
2018-Jun-18 19:00N 44°33' E 022°02'0 0.0
2018-Jun-18 18:30N 44°33' E 022°02'0 0.9
2018-Jun-18 18:00N 44°33' E 022°02'2 4.7
2018-Jun-18 17:30N 44°31' E 022°04'2 4.5
2018-Jun-18 17:00N 44°29' E 022°06'2 4.7
2018-Jun-18 16:30N 44°28' E 022°09'  
Track history (hours):
 
Tides and Currents Weather Stations Pressure Air Temp Water Temp Dewpoint Dewpoint Depression Visibility Wind Speed Wind Dir Waves Ship Positions

Ms Diego + 3 Barge

Last reported at 2018-Jun-20 20:01 UTC. Time now 2018-Jun-21 01:02 UTC.
Position N 45°04' E 020°21'.

; draft 2.1 m.

Type: Cargo ship. MMSI: 207072266.

Date/timePositionNaut miles runAvg speedWind from/ knotsBaromVisibWave heightAir tempDewpointWater temp
2018-Jun-20 20:01N 45°04' E 020°21'0 2.9
2018-Jun-20 19:59N 45°04' E 020°21'1 3.1
2018-Jun-20 19:31N 45°02' E 020°22'2 3.3
2018-Jun-20 19:01N 45°01' E 020°22'1 2.9
2018-Jun-20 18:31N 44°60' E 020°20'2 3.3
2018-Jun-20 18:00N 44°59' E 020°18'2 3.6
2018-Jun-20 17:31N 44°58' E 020°18'2 3.6
2018-Jun-20 17:01N 44°56' E 020°19'2 3.4
2018-Jun-20 16:31N 44°55' E 020°20'2 3.6
2018-Jun-20 16:01N 44°53' E 020°21'2 3.3
2018-Jun-20 15:31N 44°52' E 020°23'2 3.4
2018-Jun-20 15:01N 44°51' E 020°25'2 3.7
2018-Jun-20 14:31N 44°50' E 020°27'2 3.7
2018-Jun-20 14:00N 44°50' E 020°30'2 4.0
2018-Jun-20 13:30N 44°50' E 020°33'2 3.8
2018-Jun-20 13:01N 44°51' E 020°35'2 3.8
2018-Jun-20 12:31N 44°51' E 020°38'2 3.6
2018-Jun-20 12:01N 44°49' E 020°39'2 3.8
2018-Jun-20 11:31N 44°48' E 020°38'3 3.7
2018-Jun-20 10:42N 44°45' E 020°39'1 3.8
2018-Jun-20 10:31N 44°44' E 020°40'15 1.7
2018-Jun-20 01:36N 44°43' E 021°01'0 0.0
2018-Jun-20 01:30N 44°43' E 021°01'0 0.0
2018-Jun-20 00:25N 44°43' E 021°01'0 0.0
2018-Jun-19 23:37N 44°43' E 021°01'0 0.0
2018-Jun-19 23:30N 44°43' E 021°01'0 0.0
2018-Jun-19 23:00N 44°43' E 021°01'0 0.0
2018-Jun-19 22:27N 44°43' E 021°01'0 0.0
2018-Jun-19 21:43N 44°43' E 021°01'0 0.0
2018-Jun-19 21:31N 44°43' E 021°01'0 0.1
2018-Jun-19 21:00N 44°43' E 021°01'2 3.7
2018-Jun-19 20:30N 44°43' E 021°04'41 2.5
2018-Jun-19 04:08N 44°36' E 022°01'1 4.8
2018-Jun-19 04:01N 44°35' E 022°02'2 3.8
2018-Jun-19 03:31N 44°33' E 022°02'0 0.0
2018-Jun-18 19:39N 44°33' E 022°02'0 0.0
2018-Jun-18 19:30N 44°33' E 022°02'0 0.0
2018-Jun-18 19:00N 44°33' E 022°02'0 0.0
2018-Jun-18 18:30N 44°33' E 022°02'0 0.9
2018-Jun-18 18:00N 44°33' E 022°02'2 4.7
2018-Jun-18 17:30N 44°31' E 022°04'2 4.5
2018-Jun-18 17:00N 44°29' E 022°06'2 4.7
2018-Jun-18 16:30N 44°28' E 022°09'  

Dump ship's entire track history